createdAt,value
2018-05-09T00:01:43.183Z,16.80
2018-05-09T00:04:10.804Z,16.80
2018-05-09T00:06:38.444Z,16.80
2018-05-09T00:09:06.055Z,16.70
2018-05-09T00:11:33.683Z,16.70
2018-05-09T00:14:01.311Z,16.70
2018-05-09T00:16:29.699Z,16.70
2018-05-09T00:18:57.323Z,16.60
2018-05-09T00:21:24.944Z,16.70
2018-05-09T00:23:52.569Z,16.60
2018-05-09T00:26:20.187Z,16.50
2018-05-09T00:28:47.803Z,16.50
2018-05-09T00:31:15.439Z,16.40
2018-05-09T00:33:43.054Z,16.50
2018-05-09T00:36:10.799Z,16.50
2018-05-09T00:38:38.422Z,16.40
2018-05-09T00:41:06.042Z,16.40
2018-05-09T00:43:33.659Z,16.30
2018-05-09T00:46:01.272Z,16.20
2018-05-09T00:48:29.659Z,16.00
2018-05-09T00:50:57.280Z,16.00
2018-05-09T00:53:24.907Z,16.00
2018-05-09T00:55:52.541Z,16.00
2018-05-09T00:58:20.171Z,15.90
2018-05-09T01:00:47.898Z,15.80
2018-05-09T01:03:16.298Z,15.60
2018-05-09T01:05:43.914Z,15.50
2018-05-09T01:08:11.527Z,15.50
2018-05-09T01:10:39.148Z,15.40
2018-05-09T01:13:07.114Z,15.50
2018-05-09T01:15:34.735Z,15.60
2018-05-09T01:18:02.355Z,15.50
2018-05-09T01:20:29.979Z,15.40
2018-05-09T01:22:57.605Z,15.30
2018-05-09T01:25:25.423Z,15.20
2018-05-09T01:27:53.044Z,15.30
2018-05-09T01:30:20.655Z,15.30
2018-05-09T01:32:48.291Z,15.20
2018-05-09T01:35:15.910Z,15.10
2018-05-09T01:37:43.534Z,15.10
2018-05-09T01:40:11.155Z,15.10
2018-05-09T01:42:38.783Z,15.00
2018-05-09T01:45:06.416Z,14.90
2018-05-09T01:47:34.035Z,14.80
2018-05-09T01:50:01.663Z,14.70
2018-05-09T01:52:29.279Z,14.70
2018-05-09T01:54:56.978Z,14.80
2018-05-09T01:57:24.543Z,14.90
2018-05-09T01:59:52.926Z,14.70
2018-05-09T02:02:20.555Z,14.70
2018-05-09T02:04:48.176Z,14.70
2018-05-09T02:07:15.794Z,14.80
2018-05-09T02:09:43.411Z,14.90
2018-05-09T02:12:11.040Z,14.90
2018-05-09T02:14:38.675Z,14.90
2018-05-09T02:17:06.296Z,14.90
2018-05-09T02:19:33.915Z,14.90
2018-05-09T02:22:01.539Z,14.90
2018-05-09T02:24:29.158Z,14.60
2018-05-09T02:26:56.803Z,14.60
2018-05-09T02:29:24.421Z,14.50
2018-05-09T02:31:52.043Z,14.40
2018-05-09T02:34:19.663Z,14.50
2018-05-09T02:36:47.285Z,14.50
2018-05-09T02:39:14.904Z,14.50
2018-05-09T02:41:42.536Z,14.40
2018-05-09T02:44:10.920Z,14.30
2018-05-09T02:46:38.542Z,14.20
2018-05-09T02:49:06.163Z,14.30
2018-05-09T02:51:33.792Z,14.30
2018-05-09T02:54:01.413Z,14.20
2018-05-09T02:56:29.024Z,14.20
2018-05-09T02:58:56.647Z,14.20
2018-05-09T03:01:24.274Z,14.20
2018-05-09T03:03:52.655Z,14.30
2018-05-09T03:06:20.277Z,14.30
2018-05-09T03:08:47.896Z,14.10
2018-05-09T03:11:15.519Z,14.10
2018-05-09T03:13:43.146Z,13.90
2018-05-09T03:16:10.771Z,13.90
2018-05-09T03:18:38.387Z,13.80
2018-05-09T03:21:06.012Z,13.90
2018-05-09T03:23:33.638Z,14.00
2018-05-09T03:26:01.271Z,14.00
2018-05-09T03:28:28.904Z,13.70
2018-05-09T03:30:56.515Z,13.70
2018-05-09T03:33:24.151Z,13.80
2018-05-09T03:35:52.543Z,13.70
2018-05-09T03:38:20.169Z,13.70
2018-05-09T03:40:47.795Z,13.60
2018-05-09T03:43:15.415Z,13.60
2018-05-09T03:45:43.039Z,13.60
2018-05-09T03:48:10.651Z,13.50
2018-05-09T03:50:38.271Z,13.40
2018-05-09T03:53:05.896Z,13.50
2018-05-09T03:55:33.522Z,13.60
2018-05-09T03:58:01.140Z,13.60
2018-05-09T04:00:28.760Z,13.70
2018-05-09T04:03:08.072Z,13.60
2018-05-09T04:05:47.438Z,13.70
2018-05-09T04:08:26.811Z,13.60
2018-05-09T04:10:55.251Z,13.60
2018-05-09T04:13:22.867Z,13.70
2018-05-09T04:15:50.487Z,13.90
2018-05-09T04:18:18.102Z,14.00
2018-05-09T04:20:45.780Z,14.20
2018-05-09T04:23:13.335Z,14.20
2018-05-09T04:25:40.963Z,14.20
2018-05-09T04:28:08.632Z,14.20
2018-05-09T04:30:36.223Z,14.20
2018-05-09T04:33:03.839Z,14.20
2018-05-09T04:35:31.463Z,14.20
2018-05-09T04:37:59.083Z,14.20
2018-05-09T04:40:26.715Z,14.30
2018-05-09T04:42:54.339Z,14.40
2018-05-09T04:45:21.959Z,14.40
2018-05-09T04:47:49.578Z,14.40
2018-05-09T04:50:17.207Z,14.40
2018-05-09T04:52:44.827Z,14.50
2018-05-09T04:55:12.448Z,14.50
2018-05-09T04:57:40.067Z,14.50
2018-05-09T05:00:07.695Z,14.40
2018-05-09T05:02:35.320Z,14.40
2018-05-09T05:05:02.937Z,14.50
2018-05-09T05:07:30.551Z,14.40
2018-05-09T05:09:58.186Z,14.40
2018-05-09T05:12:25.823Z,14.40
2018-05-09T05:14:53.439Z,14.50
2018-05-09T05:17:21.059Z,14.50
2018-05-09T05:19:48.675Z,14.60
2018-05-09T05:22:16.296Z,14.60
2018-05-09T05:24:43.924Z,14.70
2018-05-09T05:27:11.553Z,14.70
2018-05-09T05:29:39.155Z,14.70
2018-05-09T05:32:06.767Z,14.70
2018-05-09T05:34:34.387Z,14.80
2018-05-09T05:37:02.016Z,14.90
2018-05-09T05:39:29.652Z,15.00
2018-05-09T05:41:57.267Z,15.00
2018-05-09T05:44:24.883Z,15.10
2018-05-09T05:46:53.265Z,15.20
2018-05-09T05:49:20.883Z,15.20
2018-05-09T05:51:48.502Z,15.20
2018-05-09T05:54:16.127Z,15.20
2018-05-09T05:56:43.743Z,15.30
2018-05-09T05:59:11.359Z,15.40
2018-05-09T06:01:38.974Z,15.40
2018-05-09T06:04:06.606Z,15.60
2018-05-09T06:06:34.223Z,15.60
2018-05-09T06:09:01.839Z,15.70
2018-05-09T06:11:29.465Z,15.80
2018-05-09T06:13:57.080Z,15.90
2018-05-09T06:16:24.706Z,16.00
2018-05-09T06:18:52.323Z,16.10
2018-05-09T06:21:19.952Z,16.10
2018-05-09T06:23:47.581Z,16.30
2018-05-09T06:26:15.183Z,16.40
2018-05-09T06:28:42.811Z,16.50
2018-05-09T06:31:10.435Z,16.60
2018-05-09T06:33:38.047Z,16.70
2018-05-09T06:36:05.658Z,16.90
2018-05-09T06:38:33.274Z,17.10
2018-05-09T06:41:00.887Z,17.20
2018-05-09T06:43:28.515Z,17.30
2018-05-09T06:45:56.131Z,17.40
2018-05-09T06:48:23.764Z,17.50
2018-05-09T06:50:51.379Z,17.70
2018-05-09T06:53:19.003Z,17.90
2018-05-09T06:55:46.628Z,17.90
2018-05-09T06:58:14.239Z,18.10
2018-05-09T07:00:41.862Z,18.20
2018-05-09T07:03:09.475Z,18.40
2018-05-09T07:05:37.086Z,18.50
2018-05-09T07:08:04.710Z,18.80
2018-05-09T07:10:33.099Z,18.90
2018-05-09T07:13:00.720Z,19.00
2018-05-09T07:15:28.336Z,19.10
2018-05-09T07:17:55.963Z,19.10
2018-05-09T07:20:23.580Z,19.30
2018-05-09T07:22:51.966Z,19.50
2018-05-09T07:25:19.585Z,19.50
2018-05-09T07:27:47.205Z,19.60
2018-05-09T07:30:14.832Z,19.80
2018-05-09T07:32:42.442Z,19.90
2018-05-09T07:35:10.051Z,19.90
2018-05-09T07:37:37.672Z,20.00
2018-05-09T07:40:05.290Z,20.30
2018-05-09T07:42:33.678Z,20.60
2018-05-09T07:45:01.292Z,20.60
2018-05-09T07:47:28.921Z,20.70
2018-05-09T07:49:56.530Z,20.70
2018-05-09T07:52:24.146Z,21.00
2018-05-09T07:54:51.758Z,21.10
2018-05-09T07:57:19.379Z,21.40
2018-05-09T07:59:46.994Z,21.70
2018-05-09T08:02:14.619Z,21.80
2018-05-09T08:04:42.234Z,21.90
2018-05-09T08:07:10.631Z,22.20
2018-05-09T08:09:38.251Z,22.20
2018-05-09T08:12:05.872Z,22.50
2018-05-09T08:14:33.492Z,22.60
2018-05-09T08:17:01.116Z,22.70
2018-05-09T08:19:28.740Z,22.80
2018-05-09T08:21:56.363Z,22.70
2018-05-09T08:24:23.984Z,22.80
2018-05-09T08:26:51.603Z,22.80
2018-05-09T08:29:19.230Z,23.00
2018-05-09T08:31:46.843Z,23.20
2018-05-09T08:34:14.467Z,23.40
2018-05-09T08:36:42.115Z,23.60
2018-05-09T08:39:10.859Z,23.90
2018-05-09T08:41:38.474Z,23.90
2018-05-09T08:44:06.106Z,24.00
2018-05-09T08:46:33.731Z,24.20
2018-05-09T08:49:01.342Z,24.10
2018-05-09T08:51:28.959Z,24.50
2018-05-09T08:53:56.579Z,24.80
2018-05-09T08:56:24.207Z,25.00
2018-05-09T08:58:52.586Z,25.80
2018-05-09T09:01:20.220Z,25.80
2018-05-09T09:03:47.844Z,26.00
2018-05-09T09:06:15.463Z,26.20
2018-05-09T09:08:43.081Z,26.50
2018-05-09T09:11:10.707Z,27.00
2018-05-09T09:13:38.318Z,27.30
2018-05-09T09:16:05.940Z,27.40
2018-05-09T09:18:33.557Z,27.60
2018-05-09T09:21:01.167Z,27.50
2018-05-09T09:23:28.783Z,27.80
2018-05-09T09:25:56.407Z,28.10
2018-05-09T09:28:24.018Z,28.30
2018-05-09T09:30:51.642Z,28.50
2018-05-09T09:33:19.254Z,28.90
2018-05-09T09:35:46.876Z,29.30
2018-05-09T09:38:14.507Z,29.50
2018-05-09T09:40:42.122Z,29.80
2018-05-09T09:43:09.748Z,29.70
2018-05-09T09:45:37.474Z,29.70
2018-05-09T09:48:05.087Z,29.90
2018-05-09T09:50:32.771Z,29.90
2018-05-09T09:53:00.323Z,30.40
2018-05-09T09:55:27.939Z,30.70
2018-05-09T09:57:55.567Z,31.20
2018-05-09T10:00:23.212Z,31.20
2018-05-09T10:02:51.590Z,31.00
2018-05-09T10:05:19.212Z,31.00
2018-05-09T10:07:46.838Z,31.40
2018-05-09T10:10:14.467Z,31.90
2018-05-09T10:12:42.088Z,31.90
2018-05-09T10:15:10.479Z,31.90
2018-05-09T10:17:38.098Z,31.80
2018-05-09T10:20:05.719Z,31.70
2018-05-09T10:22:33.339Z,31.80
2018-05-09T10:25:00.958Z,32.00
2018-05-09T10:27:28.587Z,32.20
2018-05-09T10:29:56.199Z,32.10
2018-05-09T10:32:23.815Z,32.60
2018-05-09T10:34:51.471Z,32.90
2018-05-09T10:37:19.126Z,32.70
2018-05-09T10:39:46.783Z,33.00
2018-05-09T10:42:14.366Z,33.20
2018-05-09T10:44:42.029Z,33.50
2018-05-09T10:47:09.621Z,33.50
2018-05-09T10:49:37.478Z,33.20
2018-05-09T10:52:05.143Z,32.90
2018-05-09T10:54:32.758Z,33.00
2018-05-09T10:57:00.374Z,33.00
2018-05-09T10:59:27.995Z,33.30
2018-05-09T11:01:55.616Z,33.50
2018-05-09T11:04:23.248Z,34.10
2018-05-09T11:06:50.868Z,35.10
2018-05-09T11:09:18.482Z,34.70
2018-05-09T11:11:46.277Z,34.70
2018-05-09T11:14:13.886Z,34.50
2018-05-09T11:16:41.517Z,32.90
2018-05-09T11:19:09.899Z,33.10
2018-05-09T11:21:38.292Z,33.40
2018-05-09T11:24:05.890Z,33.30
2018-05-09T11:26:33.516Z,33.60
2018-05-09T11:29:01.475Z,33.00
2018-05-09T11:31:29.091Z,32.60
2018-05-09T11:33:56.710Z,32.40
2018-05-09T11:36:24.331Z,32.10
2018-05-09T11:38:51.958Z,31.70
2018-05-09T11:41:19.575Z,31.10
2018-05-09T11:43:47.190Z,30.80
2018-05-09T11:46:14.807Z,30.40
2018-05-09T11:48:42.429Z,30.80
2018-05-09T11:51:10.043Z,31.70
2018-05-09T11:53:37.662Z,31.90
2018-05-09T11:56:05.291Z,31.80
2018-05-09T11:58:32.911Z,32.00
2018-05-09T12:01:00.522Z,32.10
2018-05-09T12:03:28.182Z,31.80
2018-05-09T12:05:55.798Z,32.50
2018-05-09T12:08:23.415Z,33.30
2018-05-09T12:10:51.176Z,33.80
2018-05-09T12:13:18.654Z,34.60
2018-05-09T12:15:46.431Z,35.20
2018-05-09T12:18:14.051Z,35.10
2018-05-09T12:20:41.670Z,35.20
2018-05-09T12:23:09.299Z,35.10
2018-05-09T12:25:38.094Z,35.10
2018-05-09T12:28:05.722Z,35.20
2018-05-09T12:30:33.351Z,35.40
2018-05-09T12:33:00.971Z,35.40
2018-05-09T12:35:28.591Z,35.40
2018-05-09T12:37:56.615Z,34.50
2018-05-09T12:40:24.323Z,33.70
2018-05-09T12:42:52.704Z,34.50
2018-05-09T12:45:20.329Z,34.50
2018-05-09T12:47:47.946Z,35.00
2018-05-09T12:50:15.563Z,35.30
2018-05-09T12:52:43.187Z,35.50
2018-05-09T12:55:11.576Z,35.10
2018-05-09T12:57:39.194Z,35.10
2018-05-09T13:00:06.818Z,35.10
2018-05-09T13:02:34.439Z,35.70
2018-05-09T13:05:05.892Z,36.40
2018-05-09T13:07:33.511Z,36.40
2018-05-09T13:10:01.139Z,36.60
2018-05-09T13:12:28.768Z,35.80
2018-05-09T13:14:56.387Z,34.40
2018-05-09T13:17:24.011Z,33.80
2018-05-09T13:19:51.740Z,32.50
2018-05-09T13:22:19.242Z,31.70
2018-05-09T13:24:47.626Z,30.80
2018-05-09T13:27:15.241Z,30.80
2018-05-09T13:29:42.860Z,30.50
2018-05-09T13:32:11.248Z,31.90
2018-05-09T13:34:38.866Z,31.90
2018-05-09T13:37:06.488Z,32.60
2018-05-09T13:39:34.867Z,32.30
2018-05-09T13:42:02.498Z,32.20
2018-05-09T13:44:30.411Z,31.90
2018-05-09T13:46:58.795Z,33.90
2018-05-09T13:49:27.183Z,33.40
2018-05-09T13:51:54.815Z,33.30
2018-05-09T13:54:22.426Z,33.30
2018-05-09T13:56:50.048Z,32.70
2018-05-09T13:59:17.667Z,32.10
2018-05-09T14:01:45.283Z,31.40
2018-05-09T14:04:12.907Z,31.20
2018-05-09T14:06:40.519Z,30.70
2018-05-09T14:09:08.148Z,30.40
2018-05-09T14:11:35.763Z,30.00
2018-05-09T14:14:03.391Z,29.70
2018-05-09T14:16:31.259Z,29.60
2018-05-09T14:18:58.879Z,29.70
2018-05-09T14:21:26.498Z,29.70
2018-05-09T14:23:54.111Z,30.00
2018-05-09T14:26:22.497Z,30.00
2018-05-09T14:28:50.110Z,30.00
2018-05-09T14:31:20.957Z,30.10
2018-05-09T14:33:49.034Z,30.00
2018-05-09T14:36:19.492Z,29.90
2018-05-09T14:38:48.433Z,29.70
2018-05-09T14:41:18.500Z,29.30
2018-05-09T14:43:46.885Z,29.10
2018-05-09T14:46:14.495Z,29.10
2018-05-09T14:48:42.120Z,29.00
2018-05-09T14:51:09.735Z,29.00
2018-05-09T14:53:37.399Z,28.80
2018-05-09T14:56:05.024Z,28.80
2018-05-09T14:58:38.299Z,28.60
2018-05-09T15:01:05.919Z,28.70
2018-05-09T15:03:33.540Z,28.70
2018-05-09T15:06:01.160Z,28.60
2018-05-09T15:08:28.811Z,28.80
2018-05-09T15:10:56.399Z,28.80
2018-05-09T15:13:24.019Z,28.80
2018-05-09T15:15:51.655Z,28.70
2018-05-09T15:18:19.739Z,28.70
2018-05-09T15:20:52.964Z,28.50
2018-05-09T15:23:20.566Z,28.50
2018-05-09T15:25:48.185Z,28.60
2018-05-09T15:28:15.811Z,28.60
2018-05-09T15:30:43.432Z,28.60
2018-05-09T15:33:11.055Z,28.40
2018-05-09T15:35:38.683Z,28.20
2018-05-09T15:38:06.313Z,28.10
2018-05-09T15:40:34.195Z,28.00
2018-05-09T15:43:01.815Z,28.00
2018-05-09T15:45:32.871Z,27.80
2018-05-09T15:48:00.487Z,27.70
2018-05-09T15:50:28.100Z,27.80
2018-05-09T15:52:55.718Z,27.70
2018-05-09T15:55:23.335Z,27.60
2018-05-09T15:57:50.955Z,27.50
2018-05-09T16:00:19.061Z,27.30
2018-05-09T16:02:46.690Z,27.40
2018-05-09T16:05:14.319Z,27.20
2018-05-09T16:07:41.939Z,27.20
2018-05-09T16:10:09.568Z,27.10
2018-05-09T16:12:37.575Z,27.00
2018-05-09T16:15:05.164Z,26.90
2018-05-09T16:17:32.805Z,26.80
2018-05-09T16:20:00.424Z,26.80
2018-05-09T16:22:28.136Z,26.80
2018-05-09T16:24:55.676Z,27.00
2018-05-09T16:27:23.295Z,26.90
2018-05-09T16:29:50.906Z,27.00
2018-05-09T16:32:18.528Z,26.90
2018-05-09T16:34:46.175Z,26.60
2018-05-09T16:37:13.804Z,26.60
2018-05-09T16:39:42.275Z,26.50
2018-05-09T16:42:09.807Z,26.50
2018-05-09T16:44:37.425Z,26.50
2018-05-09T16:47:05.043Z,26.50
2018-05-09T16:49:32.663Z,26.40
2018-05-09T16:52:00.280Z,26.50
2018-05-09T16:54:27.907Z,26.60
2018-05-09T16:56:55.527Z,26.40
2018-05-09T16:59:23.155Z,26.30
2018-05-09T17:01:50.762Z,26.20
2018-05-09T17:04:19.151Z,26.10
2018-05-09T17:06:46.779Z,26.00
2018-05-09T17:09:14.395Z,26.10
2018-05-09T17:11:42.022Z,25.90
2018-05-09T17:14:09.638Z,25.90
2018-05-09T17:16:37.255Z,26.00
2018-05-09T17:19:04.890Z,26.00
2018-05-09T17:21:44.337Z,25.90
2018-05-09T17:24:11.964Z,25.80
2018-05-09T17:26:39.587Z,25.70
2018-05-09T17:29:07.202Z,25.60
2018-05-09T17:31:34.830Z,25.60
2018-05-09T17:34:02.450Z,25.50
2018-05-09T17:36:30.063Z,25.50
2018-05-09T17:38:57.697Z,25.40
2018-05-09T17:41:25.323Z,25.30
2018-05-09T17:43:52.951Z,25.30
2018-05-09T17:46:20.576Z,25.20
2018-05-09T17:48:48.195Z,25.10
2018-05-09T17:51:15.815Z,25.10
2018-05-09T17:53:43.443Z,25.10
2018-05-09T17:56:11.370Z,24.90
2018-05-09T17:58:38.982Z,24.90
2018-05-09T18:01:06.623Z,24.80
2018-05-09T18:03:36.387Z,24.70
2018-05-09T18:06:04.006Z,24.60
2018-05-09T18:08:31.636Z,24.60
2018-05-09T18:10:59.279Z,24.40
2018-05-09T18:13:26.925Z,24.30
2018-05-09T18:15:55.315Z,24.10
2018-05-09T18:18:22.943Z,24.10
2018-05-09T18:20:57.037Z,23.90
2018-05-09T18:23:24.731Z,23.80
2018-05-09T18:25:52.384Z,23.80
2018-05-09T18:28:20.066Z,23.70
2018-05-09T18:30:47.882Z,23.60
2018-05-09T18:33:15.591Z,23.50
2018-05-09T18:35:43.233Z,23.40
2018-05-09T18:38:10.949Z,23.30
2018-05-09T18:40:38.637Z,23.30
2018-05-09T18:43:07.080Z,23.30
2018-05-09T18:45:34.753Z,23.30
2018-05-09T18:48:02.445Z,23.20
2018-05-09T18:50:30.247Z,23.20
2018-05-09T18:52:58.646Z,23.10
2018-05-09T18:55:26.386Z,23.10
2018-05-09T18:57:54.199Z,23.10
2018-05-09T19:00:21.906Z,22.90
2018-05-09T19:02:50.322Z,22.80
2018-05-09T19:05:17.986Z,22.70
2018-05-09T19:07:45.657Z,22.80
2018-05-09T19:10:13.492Z,22.70
2018-05-09T19:12:41.154Z,22.70
2018-05-09T19:15:08.838Z,22.60
2018-05-09T19:17:36.543Z,22.50
2018-05-09T19:20:04.243Z,22.40
2018-05-09T19:22:31.922Z,22.30
2018-05-09T19:24:59.609Z,22.30
2018-05-09T19:27:27.272Z,22.30
2018-05-09T19:29:56.113Z,22.30
2018-05-09T19:32:23.763Z,22.20
2018-05-09T19:34:51.438Z,22.20
2018-05-09T19:37:19.102Z,22.20
2018-05-09T19:39:46.813Z,22.20
2018-05-09T19:42:14.503Z,22.20
2018-05-09T19:44:42.152Z,22.10
2018-05-09T19:47:09.979Z,22.00
2018-05-09T19:49:37.619Z,22.00
2018-05-09T19:52:05.283Z,21.90
2018-05-09T19:54:32.942Z,21.90
2018-05-09T19:57:00.609Z,21.70
2018-05-09T19:59:29.035Z,21.60
2018-05-09T20:01:56.709Z,21.60
2018-05-09T20:04:24.425Z,21.70
2018-05-09T20:06:52.146Z,21.60
2018-05-09T20:09:19.778Z,21.50
2018-05-09T20:11:47.456Z,21.50
2018-05-09T20:14:15.103Z,21.40
2018-05-09T20:16:42.789Z,21.40
2018-05-09T20:19:10.461Z,21.30
2018-05-09T20:21:38.104Z,21.30
2018-05-09T20:24:05.796Z,21.30
2018-05-09T20:26:33.491Z,21.20
2018-05-09T20:29:01.157Z,21.20
2018-05-09T20:31:40.550Z,21.20
2018-05-09T20:34:08.203Z,21.20
2018-05-09T20:36:35.860Z,21.10
2018-05-09T20:39:03.552Z,21.10
2018-05-09T20:41:31.213Z,21.10
2018-05-09T20:43:58.894Z,21.00
2018-05-09T20:46:26.544Z,21.00
2018-05-09T20:48:54.361Z,21.00
2018-05-09T20:51:33.747Z,21.00
2018-05-09T20:54:01.355Z,21.00
2018-05-09T20:56:28.971Z,20.90
2018-05-09T20:58:56.678Z,21.00
2018-05-09T21:01:37.180Z,21.00
2018-05-09T21:04:05.568Z,20.80
2018-05-09T21:06:33.192Z,20.80
2018-05-09T21:09:00.808Z,20.80
2018-05-09T21:11:28.428Z,20.70
2018-05-09T21:13:56.063Z,20.60
2018-05-09T21:16:23.695Z,20.70
2018-05-09T21:18:51.349Z,20.70
2018-05-09T21:21:18.977Z,20.70
2018-05-09T21:23:46.604Z,20.70
2018-05-09T21:26:14.232Z,20.70
2018-05-09T21:28:42.623Z,20.70
2018-05-09T21:31:10.250Z,20.70
2018-05-09T21:33:37.880Z,20.60
2018-05-09T21:36:05.503Z,20.60
2018-05-09T21:38:33.122Z,20.50
2018-05-09T21:41:00.744Z,20.30
2018-05-09T21:43:28.383Z,20.10
2018-05-09T21:45:56.002Z,20.00
2018-05-09T21:48:23.623Z,20.00
2018-05-09T21:50:51.260Z,19.80
2018-05-09T21:53:18.879Z,19.70
2018-05-09T21:55:46.495Z,19.70
2018-05-09T21:58:14.122Z,19.50
2018-05-09T22:00:44.280Z,19.30
2018-05-09T22:03:11.895Z,19.30
2018-05-09T22:05:39.511Z,19.20
2018-05-09T22:08:07.136Z,19.20
2018-05-09T22:10:34.755Z,19.10
2018-05-09T22:13:02.386Z,19.00
2018-05-09T22:15:30.020Z,18.90
2018-05-09T22:17:57.638Z,18.90
2018-05-09T22:20:25.259Z,18.90
2018-05-09T22:22:53.650Z,18.90
2018-05-09T22:25:21.286Z,18.90
2018-05-09T22:27:48.915Z,18.90
2018-05-09T22:30:16.540Z,18.90
2018-05-09T22:32:44.159Z,18.90
2018-05-09T22:35:11.784Z,18.90
2018-05-09T22:37:39.407Z,19.00
2018-05-09T22:40:07.027Z,19.10
2018-05-09T22:42:34.646Z,19.20
2018-05-09T22:45:02.263Z,19.10
2018-05-09T22:47:29.891Z,19.20
2018-05-09T22:49:57.506Z,19.20
2018-05-09T22:52:25.131Z,19.20
2018-05-09T22:54:52.780Z,19.20
2018-05-09T22:57:20.371Z,19.30
2018-05-09T22:59:53.811Z,19.40
2018-05-09T23:02:21.431Z,19.40
2018-05-09T23:04:49.819Z,19.40
2018-05-09T23:07:17.445Z,19.40
2018-05-09T23:09:45.063Z,19.40
2018-05-09T23:12:12.687Z,19.30
2018-05-09T23:14:40.315Z,19.40
2018-05-09T23:17:08.045Z,19.40
2018-05-09T23:19:35.571Z,19.20
2018-05-09T23:22:03.198Z,19.10
2018-05-09T23:24:30.815Z,19.20
2018-05-09T23:26:58.446Z,19.40
2018-05-09T23:29:26.064Z,19.50
2018-05-09T23:31:53.684Z,19.60
2018-05-09T23:34:21.300Z,19.70
2018-05-09T23:36:48.915Z,19.60
2018-05-09T23:39:16.535Z,19.60
2018-05-09T23:41:44.171Z,19.70
2018-05-09T23:44:11.787Z,19.70
2018-05-09T23:46:39.403Z,19.80
2018-05-09T23:49:07.019Z,19.70
2018-05-09T23:51:34.649Z,19.60
2018-05-09T23:54:02.279Z,19.50
2018-05-09T23:56:29.912Z,19.40
2018-05-09T23:58:57.534Z,19.40
